Time;durP1;ratioP1;P1;durP2;ratioP2;P2;SDS_P1;SDS_P2;PMS_P1;PMS_P2;Temp;Humidity;BMP_temperature;BMP_pressure;BME280_temperature;BME280_humidity;BME280_pressure;Samples;Min_cycle;Max_cycle;Signal;HPM_P1;HPM_P2
2023/01/30 00:00:21;;;;;;;23.00;13.80;;;2.80;99.90;;;;;;5118019;28;20186;-88
2023/01/30 00:02:47;;;;;;;22.97;14.10;;;2.70;99.90;;;;;;5117548;28;20452;-88
2023/01/30 00:05:13;;;;;;;23.13;14.00;;;2.70;99.90;;;;;;5099656;28;20523;-84
2023/01/30 00:07:38;;;;;;;21.43;13.40;;;2.70;99.90;;;;;;5099520;28;20192;-85
2023/01/30 00:10:04;;;;;;;19.80;13.30;;;2.70;99.90;;;;;;5099317;28;20715;-89
2023/01/30 00:12:30;;;;;;;26.55;14.65;;;2.70;99.90;;;;;;5117290;28;20198;-90
2023/01/30 00:14:56;;;;;;;22.33;13.23;;;2.70;99.90;;;;;;5099587;28;20172;-85
2023/01/30 00:17:22;;;;;;;25.43;14.30;;;2.70;99.90;;;;;;5117299;28;20196;-85
2023/01/30 00:19:48;;;;;;;24.23;14.30;;;2.70;99.90;;;;;;5099327;28;20244;-85
2023/01/30 00:22:13;;;;;;;26.40;15.20;;;2.70;99.90;;;;;;5099359;28;20424;-89
2023/01/30 00:24:39;;;;;;;20.93;13.47;;;2.70;99.90;;;;;;5101374;28;20515;-89
2023/01/30 00:27:05;;;;;;;22.93;14.73;;;2.70;99.90;;;;;;5099421;28;20440;-88
2023/01/30 00:29:31;;;;;;;23.73;13.97;;;2.70;99.90;;;;;;5099369;28;20629;-85
2023/01/30 00:31:56;;;;;;;25.90;15.00;;;2.70;99.90;;;;;;5117199;28;20206;-85
2023/01/30 00:34:22;;;;;;;20.57;13.93;;;2.70;99.90;;;;;;5098898;28;20706;-89
2023/01/30 00:36:48;;;;;;;25.43;14.57;;;2.70;99.90;;;;;;5117146;28;20172;-85
2023/01/30 00:39:14;;;;;;;20.57;14.27;;;2.70;99.90;;;;;;5117412;28;20489;-88
2023/01/30 00:47:08;;;;;;;26.20;15.43;;;2.70;99.90;;;;;;5117168;28;20220;-88
2023/01/30 00:49:35;;;;;;;27.02;16.67;;;2.80;99.90;;;;;;5117601;28;20250;-85
2023/01/30 00:52:01;;;;;;;23.13;14.23;;;2.80;99.90;;;;;;5098696;28;20652;-89
2023/01/30 00:54:27;;;;;;;20.05;13.50;;;2.80;99.90;;;;;;5098801;28;20212;-88
2023/01/30 00:56:53;;;;;;;22.67;14.20;;;2.70;99.90;;;;;;5116811;28;20636;-85
2023/01/30 00:59:18;;;;;;;25.60;13.00;;;2.70;99.90;;;;;;5119846;28;20412;-89
2023/01/30 01:01:44;;;;;;;25.43;14.40;;;2.80;99.90;;;;;;5117993;28;20195;-84
2023/01/30 01:04:10;;;;;;;24.43;13.83;;;2.80;99.90;;;;;;5120079;28;20180;-89
2023/01/30 01:06:37;;;;;;;23.70;14.05;;;2.80;99.90;;;;;;5116437;28;20640;-89
2023/01/30 01:09:04;;;;;;;27.48;15.38;;;2.80;99.90;;;;;;5116259;28;20734;-89
2023/01/30 01:11:30;;;;;;;21.20;14.25;;;2.90;99.90;;;;;;5116760;28;20179;-86
2023/01/30 01:13:58;;;;;;;23.37;13.27;;;2.90;99.90;;;;;;5098077;28;20588;-90
2023/01/30 01:16:26;;;;;;;18.90;12.50;;;2.90;99.90;;;;;;5116363;28;20928;-85
2023/01/30 01:18:52;;;;;;;20.98;13.80;;;2.90;99.90;;;;;;5116601;28;20235;-89
2023/01/30 01:21:18;;;;;;;25.42;14.60;;;2.90;99.90;;;;;;5116325;28;20632;-89
2023/01/30 01:23:49;;;;;;;20.60;13.43;;;2.90;99.90;;;;;;5098200;28;20210;-89
2023/01/30 01:26:15;;;;;;;22.05;13.15;;;2.90;99.90;;;;;;5098206;28;20179;-89
2023/01/30 01:28:41;;;;;;;24.10;14.63;;;2.90;99.90;;;;;;5097829;28;20207;-85
2023/01/30 01:31:11;;;;;;;18.57;12.97;;;2.90;99.90;;;;;;5098261;28;20179;-87
2023/01/30 01:33:38;;;;;;;29.17;14.60;;;2.90;99.90;;;;;;5097696;28;20340;-85
2023/01/30 01:36:04;;;;;;;24.45;14.05;;;2.90;99.90;;;;;;5116076;28;20183;-88
2023/01/30 01:38:30;;;;;;;22.67;15.55;;;2.90;99.90;;;;;;5097715;28;20280;-85
2023/01/30 01:41:02;;;;;;;23.25;13.75;;;2.90;99.90;;;;;;5097511;28;20179;-89
2023/01/30 01:43:36;;;;;;;24.63;15.52;;;2.90;99.90;;;;;;5099946;28;20267;-86
2023/01/30 01:46:21;;;;;;;22.48;14.50;;;2.90;99.90;;;;;;5111454;28;20179;-88
2023/01/30 01:48:54;;;;;;;21.58;13.57;;;2.90;99.90;;;;;;5102522;28;20199;-88
2023/01/30 01:51:31;;;;;;;24.63;15.13;;;2.90;99.90;;;;;;5097585;28;20565;-84
2023/01/30 01:54:03;;;;;;;21.45;12.68;;;2.90;99.90;;;;;;5097327;28;20626;-86
2023/01/30 01:56:31;;;;;;;19.20;12.77;;;2.90;99.90;;;;;;5097340;28;20164;-85
2023/01/30 01:59:09;;;;;;;26.80;13.65;;;2.90;99.90;;;;;;5097569;28;20199;-87
2023/01/30 02:01:35;;;;;;;24.05;14.60;;;2.90;99.90;;;;;;5115515;28;20176;-85
2023/01/30 02:04:04;;;;;;;25.93;15.77;;;2.90;99.90;;;;;;5097335;28;20203;-90
2023/01/30 02:06:31;;;;;;;23.02;13.18;;;2.90;99.90;;;;;;5097253;28;20264;-85
2023/01/30 02:09:02;;;;;;;21.88;13.98;;;2.90;99.90;;;;;;5097684;28;20775;-89
2023/01/30 02:11:48;;;;;;;24.15;14.20;;;2.80;99.90;;;;;;5103234;28;20691;-90
2023/01/30 02:14:16;;;;;;;23.23;13.45;;;2.80;99.90;;;;;;5097322;28;20588;-85
2023/01/30 02:16:45;;;;;;;25.65;15.20;;;2.80;99.90;;;;;;5115397;28;20172;-89
2023/01/30 02:19:37;;;;;;;21.80;14.32;;;2.80;99.90;;;;;;5115580;28;20175;-90
2023/01/30 02:22:26;;;;;;;23.20;14.18;;;2.70;99.90;;;;;;5115031;28;20164;-85
2023/01/30 02:25:29;;;;;;;21.85;13.85;;;2.70;99.90;;;;;;5097384;28;20180;-85
2023/01/30 02:28:16;;;;;;;26.05;14.13;;;2.60;99.90;;;;;;5067580;28;20214;-86
2023/01/30 02:31:05;;;;;;;24.98;14.48;;;2.60;99.90;;;;;;5096952;28;20641;-85
2023/01/30 02:33:38;;;;;;;25.83;14.95;;;2.50;99.90;;;;;;5115107;28;20250;-90
2023/01/30 02:36:34;;;;;;;22.45;15.68;;;2.50;99.90;;;;;;5097055;28;20171;-85
2023/01/30 02:39:11;;;;;;;24.75;15.13;;;2.40;99.90;;;;;;5115441;28;20745;-90
2023/01/30 02:41:47;;;;;;;26.95;14.65;;;2.30;99.90;;;;;;5096748;28;20696;-90
2023/01/30 02:44:26;;;;;;;31.65;18.25;;;2.30;99.90;;;;;;5115360;28;20176;-85
2023/01/30 02:47:09;;;;;;;33.70;19.58;;;2.20;99.90;;;;;;5114931;28;20209;-86
2023/01/30 02:49:40;;;;;;;32.30;17.25;;;2.20;99.90;;;;;;5097023;28;20186;-85
2023/01/30 02:52:08;;;;;;;24.63;15.38;;;2.10;99.90;;;;;;5114663;28;20660;-85
2023/01/30 02:54:34;;;;;;;29.27;16.27;;;2.10;99.90;;;;;;5114955;28;20211;-90
2023/01/30 02:57:00;;;;;;;31.70;16.45;;;2.10;99.90;;;;;;5114669;28;20580;-86
2023/01/30 02:59:32;;;;;;;27.40;14.83;;;2.10;99.90;;;;;;5096658;28;20180;-90
2023/01/30 03:02:09;;;;;;;27.15;15.57;;;2.10;99.90;;;;;;5115044;28;20612;-86
2023/01/30 03:04:52;;;;;;;29.52;16.77;;;2.00;99.90;;;;;;5130352;28;20236;-86
2023/01/30 03:07:30;;;;;;;24.13;16.10;;;2.00;99.90;;;;;;5104885;28;20715;-85
2023/01/30 03:10:04;;;;;;;24.02;15.48;;;1.90;99.90;;;;;;5100593;28;20219;-90
2023/01/30 03:12:41;;;;;;;27.42;15.40;;;1.80;99.90;;;;;;5100514;28;20209;-85
2023/01/30 03:15:11;;;;;;;25.20;14.15;;;1.80;99.90;;;;;;5100445;28;20218;-85
2023/01/30 03:17:40;;;;;;;30.10;17.20;;;1.80;99.90;;;;;;5118735;28;20200;-86
2023/01/30 03:20:07;;;;;;;29.40;16.60;;;1.70;99.90;;;;;;5100387;28;20171;-86
2023/01/30 03:22:33;;;;;;;25.95;15.65;;;1.80;99.90;;;;;;5100383;28;20602;-86
2023/01/30 03:24:59;;;;;;;26.27;16.37;;;1.80;99.90;;;;;;5119215;28;20176;-90
2023/01/30 03:27:25;;;;;;;25.87;15.17;;;1.70;99.90;;;;;;5118630;28;20203;-90
2023/01/30 03:29:51;;;;;;;21.58;13.85;;;1.70;99.90;;;;;;5119307;28;20415;-84
2023/01/30 03:32:16;;;;;;;22.87;14.23;;;1.60;99.90;;;;;;5100473;28;20225;-86
2023/01/30 03:34:42;;;;;;;25.00;14.57;;;1.50;99.90;;;;;;5100157;28;20218;-85
2023/01/30 03:37:08;;;;;;;24.90;15.10;;;1.60;99.90;;;;;;5118341;28;20558;-85
2023/01/30 03:39:33;;;;;;;30.87;16.80;;;1.50;99.90;;;;;;5118905;28;20172;-90
2023/01/30 03:41:59;;;;;;;29.47;16.60;;;1.60;99.90;;;;;;5100238;28;20180;-85
2023/01/30 03:44:25;;;;;;;24.50;15.07;;;1.60;99.90;;;;;;5099963;28;20184;-85
2023/01/30 03:46:51;;;;;;;24.33;15.07;;;1.70;99.90;;;;;;5107370;28;20228;-89
2023/01/30 03:49:17;;;;;;;23.93;13.47;;;1.60;99.90;;;;;;5103289;28;20267;-90
2023/01/30 03:51:42;;;;;;;28.35;14.80;;;1.50;99.90;;;;;;5126870;28;20172;-89
2023/01/30 03:54:08;;;;;;;27.33;15.57;;;1.40;99.90;;;;;;5119969;28;20276;-90
2023/01/30 03:56:34;;;;;;;31.20;15.17;;;1.30;99.90;;;;;;5118021;28;20641;-85
2023/01/30 03:59:00;;;;;;;27.37;14.87;;;1.30;99.90;;;;;;5099526;28;20604;-85
2023/01/30 04:01:25;;;;;;;28.00;15.00;;;1.30;99.90;;;;;;5117812;28;20672;-87
2023/01/30 04:03:51;;;;;;;27.00;16.03;;;1.30;99.90;;;;;;5099622;28;20203;-89
2023/01/30 04:06:17;;;;;;;26.50;16.00;;;1.30;99.90;;;;;;5099539;28;20190;-86
2023/01/30 04:08:43;;;;;;;25.57;15.13;;;1.20;99.90;;;;;;5117484;28;20492;-91
2023/01/30 04:11:08;;;;;;;29.93;16.87;;;1.10;99.90;;;;;;5118301;28;20175;-90
2023/01/30 04:13:34;;;;;;;26.93;15.77;;;1.00;99.90;;;;;;5120739;28;20227;-85
2023/01/30 04:16:21;;;;;;;27.70;17.07;;;1.00;99.90;;;;;;5099967;28;20180;-88
2023/01/30 04:18:47;;;;;;;28.25;14.90;;;1.10;99.90;;;;;;5105557;28;20192;-88
2023/01/30 04:21:13;;;;;;;27.83;15.30;;;1.10;99.90;;;;;;5124249;28;20239;-84
2023/01/30 04:23:39;;;;;;;28.40;15.03;;;1.00;99.90;;;;;;5117472;28;20218;-90
2023/01/30 04:26:05;;;;;;;28.80;16.25;;;0.90;99.90;;;;;;5117369;28;20396;-85
2023/01/30 04:28:32;;;;;;;27.40;15.50;;;0.80;99.90;;;;;;5117175;28;20198;-85
2023/01/30 04:30:58;;;;;;;27.58;15.23;;;0.70;99.90;;;;;;5099250;28;20228;-90
2023/01/30 04:33:23;;;;;;;33.87;17.10;;;0.70;99.90;;;;;;5117083;28;20219;-90
2023/01/30 04:35:59;;;;;;;30.83;16.43;;;0.60;99.90;;;;;;5117270;28;20924;-84
2023/01/30 04:38:27;;;;;;;28.80;15.23;;;0.60;99.90;;;;;;5098697;28;20202;-85
2023/01/30 04:40:55;;;;;;;32.97;16.60;;;0.60;99.90;;;;;;5117058;28;20168;-90
2023/01/30 04:43:22;;;;;;;26.88;15.30;;;0.50;99.90;;;;;;5098819;28;20204;-85
2023/01/30 04:45:49;;;;;;;30.33;14.55;;;0.50;99.90;;;;;;5098762;28;20190;-89
2023/01/30 04:48:16;;;;;;;28.98;15.57;;;0.40;99.90;;;;;;5099057;28;20352;-85
2023/01/30 04:50:43;;;;;;;26.27;15.93;;;0.40;99.90;;;;;;5098721;28;20183;-85
2023/01/30 04:53:09;;;;;;;30.48;15.55;;;0.40;99.90;;;;;;5116975;28;20261;-85
2023/01/30 04:55:35;;;;;;;27.25;14.05;;;0.40;99.90;;;;;;5118666;28;20176;-87
2023/01/30 04:58:02;;;;;;;23.70;13.80;;;0.30;99.90;;;;;;5108260;28;20254;-90
2023/01/30 05:00:28;;;;;;;26.20;14.75;;;0.30;99.90;;;;;;5119776;28;20168;-83
2023/01/30 05:02:54;;;;;;;27.73;14.00;;;0.30;99.90;;;;;;5116581;28;20203;-90
2023/01/30 05:05:25;;;;;;;29.98;15.85;;;0.30;99.90;;;;;;5098569;28;20529;-84
2023/01/30 05:07:50;;;;;;;26.05;14.02;;;0.30;99.90;;;;;;5116325;28;20191;-84
2023/01/30 05:10:17;;;;;;;27.10;15.00;;;0.20;99.90;;;;;;5116807;28;20249;-89
2023/01/30 05:12:43;;;;;;;26.98;15.48;;;0.10;99.90;;;;;;5116471;28;20187;-85
2023/01/30 05:15:10;;;;;;;29.35;15.20;;;0.20;99.90;;;;;;5099871;28;20180;-89
2023/01/30 05:17:36;;;;;;;27.23;15.38;;;0.20;99.90;;;;;;5112647;28;20622;-90
2023/01/30 05:20:04;;;;;;;35.80;19.52;;;0.20;99.90;;;;;;5101076;28;20637;-90
2023/01/30 05:22:30;;;;;;;30.13;15.73;;;0.20;99.90;;;;;;5084382;28;20226;-90
2023/01/30 05:24:56;;;;;;;33.77;16.30;;;0.20;99.90;;;;;;5104396;28;20189;-90
2023/01/30 05:27:21;;;;;;;27.60;14.80;;;0.20;99.90;;;;;;5114519;28;20440;-89
2023/01/30 05:29:47;;;;;;;30.00;15.37;;;0.10;99.90;;;;;;5116711;28;20408;-89
2023/01/30 05:32:14;;;;;;;27.23;14.40;;;0.00;99.90;;;;;;5117382;28;20196;-90
2023/01/30 05:34:40;;;;;;;28.95;14.27;;;0.20;99.90;;;;;;5098541;28;20706;-89
2023/01/30 05:37:06;;;;;;;32.27;17.30;;;0.40;99.90;;;;;;5125694;28;20204;-88
2023/01/30 05:39:31;;;;;;;28.30;15.83;;;0.40;99.90;;;;;;5120051;28;20179;-90
2023/01/30 05:41:57;;;;;;;25.50;15.50;;;0.50;99.90;;;;;;5107612;28;20188;-86
2023/01/30 05:44:23;;;;;;;28.47;15.03;;;0.60;99.90;;;;;;5089667;28;20176;-84
2023/01/30 05:46:52;;;;;;;28.23;18.43;;;0.60;99.90;;;;;;5114148;28;20544;-90
2023/01/30 05:49:17;;;;;;;32.25;17.88;;;0.70;99.90;;;;;;5096051;28;20221;-86
2023/01/30 05:51:43;;;;;;;59.23;29.87;;;0.70;99.90;;;;;;5095490;28;20222;-83
2023/01/30 05:54:09;;;;;;;66.33;32.63;;;0.80;99.90;;;;;;5108131;28;20226;-84
2023/01/30 05:56:34;;;;;;;46.83;26.60;;;0.70;99.90;;;;;;5114157;28;20664;-92
2023/01/30 05:59:01;;;;;;;35.50;23.20;;;0.70;99.90;;;;;;5085856;28;20220;-85
2023/01/30 06:01:28;;;;;;;31.85;19.63;;;0.80;99.90;;;;;;5095454;28;20203;-83
2023/01/30 06:03:54;;;;;;;35.72;20.00;;;0.80;99.90;;;;;;5093444;28;20193;-84
2023/01/30 06:06:21;;;;;;;138.13;70.10;;;0.70;99.90;;;;;;5076827;28;20649;-84
2023/01/30 06:08:51;;;;;;;120.90;72.75;;;0.70;99.90;;;;;;5078712;28;20227;-84
2023/01/30 06:11:17;;;;;;;151.90;83.03;;;0.50;99.90;;;;;;5085462;28;20184;-90
2023/01/30 06:13:42;;;;;;;83.63;47.35;;;0.40;99.90;;;;;;5117248;28;20243;-90
2023/01/30 06:16:13;;;;;;;39.97;22.20;;;0.30;99.90;;;;;;5104881;28;20173;-84
2023/01/30 06:18:40;;;;;;;97.53;68.47;;;0.30;99.90;;;;;;5095799;28;20292;-86
2023/01/30 06:21:07;;;;;;;95.18;57.67;;;0.30;99.90;;;;;;5095859;28;20225;-85
2023/01/30 06:23:32;;;;;;;115.53;71.38;;;0.30;99.90;;;;;;5095092;28;20200;-87
2023/01/30 06:25:58;;;;;;;33.70;21.63;;;0.20;99.90;;;;;;5113308;28;20233;-82
2023/01/30 06:28:25;;;;;;;40.57;24.47;;;0.10;99.90;;;;;;5098605;28;20306;-84
2023/01/30 06:30:51;;;;;;;102.00;60.47;;;0.10;99.90;;;;;;5095367;28;20179;-86
2023/01/30 06:33:17;;;;;;;107.72;65.22;;;0.10;99.90;;;;;;5110735;28;20227;-84
2023/01/30 06:35:43;;;;;;;81.40;55.73;;;0.10;99.90;;;;;;5093299;28;20272;-84
2023/01/30 06:38:10;;;;;;;31.93;19.10;;;0.00;99.90;;;;;;5089380;28;20454;-84
2023/01/30 06:40:40;;;;;;;32.42;19.83;;;0.00;99.90;;;;;;5072856;28;20406;-84
2023/01/30 06:43:06;;;;;;;42.13;20.50;;;0.00;99.90;;;;;;5086363;28;20680;-84
2023/01/30 06:45:32;;;;;;;44.22;27.10;;;0.00;99.90;;;;;;5112236;28;20248;-85
2023/01/30 06:47:58;;;;;;;47.93;29.90;;;0.00;99.90;;;;;;5111745;28;20722;-87
2023/01/30 06:50:26;;;;;;;34.90;20.77;;;0.10;99.90;;;;;;5110520;28;20176;-83
2023/01/30 06:52:53;;;;;;;49.17;32.38;;;0.10;99.90;;;;;;5085102;28;20505;-83
2023/01/30 06:55:21;;;;;;;80.97;45.33;;;0.20;99.90;;;;;;5112214;28;20179;-86
2023/01/30 06:57:48;;;;;;;57.25;36.22;;;0.20;99.90;;;;;;5093242;28;20208;-86
2023/01/30 07:00:16;;;;;;;43.13;24.35;;;0.20;99.90;;;;;;5112669;28;20176;-84
2023/01/30 07:02:42;;;;;;;41.90;23.92;;;0.20;99.90;;;;;;5079582;28;20204;-83
2023/01/30 07:05:09;;;;;;;104.03;61.13;;;0.40;99.90;;;;;;5097133;28;20188;-83
2023/01/30 07:07:35;;;;;;;80.50;50.50;;;0.40;99.90;;;;;;5092982;28;20681;-87
2023/01/30 07:10:02;;;;;;;40.92;23.52;;;0.50;99.90;;;;;;5071837;28;20232;-87
2023/01/30 07:12:28;;;;;;;40.75;25.40;;;0.60;99.90;;;;;;5082690;28;21671;-83
2023/01/30 07:14:54;;;;;;;31.10;18.17;;;0.70;99.90;;;;;;5108264;28;20279;-86
2023/01/30 07:17:20;;;;;;;37.83;24.40;;;0.70;99.90;;;;;;5089565;28;20200;-87
2023/01/30 07:19:46;;;;;;;31.33;21.10;;;0.90;99.90;;;;;;5106958;28;20447;-88
2023/01/30 07:22:12;;;;;;;32.40;19.70;;;1.00;99.90;;;;;;5080841;28;20669;-87
2023/01/30 07:24:38;;;;;;;27.48;17.20;;;1.10;99.90;;;;;;5080989;28;20219;-84
2023/01/30 07:27:09;;;;;;;24.70;15.38;;;1.30;99.90;;;;;;5061009;28;20183;-83
2023/01/30 07:29:35;;;;;;;26.08;16.50;;;1.50;99.90;;;;;;5062374;28;20189;-85
2023/01/30 07:32:01;;;;;;;26.30;14.38;;;1.70;99.90;;;;;;5064205;28;20484;-86
2023/01/30 07:34:27;;;;;;;22.35;16.00;;;1.90;99.90;;;;;;5080327;28;20407;-83
2023/01/30 07:36:53;;;;;;;32.37;22.60;;;2.10;99.90;;;;;;5080823;28;20179;-86
2023/01/30 07:39:19;;;;;;;27.60;17.57;;;2.20;99.90;;;;;;5081314;28;20785;-83
2023/01/30 07:41:47;;;;;;;26.57;16.10;;;2.40;99.90;;;;;;5076149;28;20392;-86
2023/01/30 07:44:13;;;;;;;24.90;15.35;;;2.60;99.90;;;;;;5080574;28;20652;-83
2023/01/30 07:46:41;;;;;;;25.97;15.43;;;2.70;99.90;;;;;;5079965;28;20230;-84
2023/01/30 07:49:08;;;;;;;29.55;16.77;;;2.80;99.90;;;;;;5079234;28;20289;-86
2023/01/30 07:51:34;;;;;;;56.45;30.65;;;3.00;99.90;;;;;;5105793;28;20183;-84
2023/01/30 07:54:00;;;;;;;45.83;24.63;;;3.20;99.90;;;;;;5111123;28;20578;-86
2023/01/30 07:56:27;;;;;;;33.88;21.48;;;3.80;99.90;;;;;;5096652;28;20176;-85
2023/01/30 07:58:55;;;;;;;28.08;20.83;;;4.50;99.90;;;;;;5108557;28;20265;-82
2023/01/30 08:01:21;;;;;;;27.88;21.98;;;5.00;99.90;;;;;;5104672;28;20632;-84
2023/01/30 08:03:49;;;;;;;25.20;19.33;;;5.30;99.90;;;;;;5082890;28;20212;-88
2023/01/30 08:06:15;;;;;;;24.40;17.33;;;5.60;99.90;;;;;;5067973;28;20892;-85
2023/01/30 08:08:41;;;;;;;21.58;14.60;;;6.20;99.90;;;;;;5083913;28;20294;-87
2023/01/30 08:11:08;;;;;;;19.08;12.93;;;6.90;99.90;;;;;;5067482;28;20188;-87
2023/01/30 08:13:34;;;;;;;22.52;14.38;;;7.50;99.90;;;;;;5079003;27;20254;-86
2023/01/30 08:16:01;;;;;;;21.70;14.27;;;8.00;99.90;;;;;;5067047;28;20180;-84
2023/01/30 08:18:30;;;;;;;23.40;15.55;;;8.50;99.90;;;;;;5082079;28;20296;-85
2023/01/30 08:21:00;;;;;;;21.75;16.42;;;;;;;;;;5083854;28;20251;-84
2023/01/30 08:23:26;;;;;;;23.75;16.55;;;9.10;99.90;;;;;;5065709;28;20211;-86
2023/01/30 08:25:56;;;;;;;20.85;14.23;;;9.90;99.90;;;;;;5066169;28;20179;-86
2023/01/30 08:28:25;;;;;;;18.83;13.77;;;10.30;99.90;;;;;;5091095;28;20203;-86
2023/01/30 08:30:53;;;;;;;20.92;14.10;;;10.70;99.90;;;;;;5110855;28;20684;-87
2023/01/30 08:33:26;;;;;;;18.35;13.20;;;11.10;99.90;;;;;;5110499;28;20291;-86
2023/01/30 08:35:52;;;;;;;38.92;21.95;;;11.40;99.90;;;;;;5094028;28;20224;-86
2023/01/30 08:38:17;;;;;;;44.73;25.23;;;12.00;99.90;;;;;;5095151;28;20191;-85
2023/01/30 08:40:43;;;;;;;20.27;14.10;;;12.40;99.90;;;;;;5103236;28;20181;-85
2023/01/30 08:43:09;;;;;;;36.00;20.80;;;12.60;99.00;;;;;;5099474;28;20282;-86
2023/01/30 08:45:35;;;;;;;18.00;12.23;;;12.50;97.80;;;;;;5106377;28;20176;-86
2023/01/30 08:48:03;;;;;;;20.10;14.03;;;12.30;97.70;;;;;;5084430;28;20444;-86
2023/01/30 08:50:29;;;;;;;19.20;15.70;;;12.20;97.10;;;;;;5098411;28;20752;-86
2023/01/30 08:52:54;;;;;;;21.40;14.13;;;12.00;97.50;;;;;;5100598;28;20470;-87
2023/01/30 08:55:21;;;;;;;18.03;14.00;;;12.00;96.80;;;;;;5086276;28;20504;-85
2023/01/30 08:57:47;;;;;;;19.10;14.67;;;11.90;96.70;;;;;;5085805;28;20200;-84
2023/01/30 09:00:14;;;;;;;16.80;12.70;;;11.70;96.30;;;;;;5083902;28;20440;-86
2023/01/30 09:02:41;;;;;;;20.35;14.50;;;11.40;96.80;;;;;;5085591;28;20436;-85
2023/01/30 09:05:07;;;;;;;18.55;13.35;;;11.10;96.80;;;;;;5102242;28;20894;-87
2023/01/30 09:07:33;;;;;;;18.40;13.90;;;10.90;97.20;;;;;;5083161;28;20621;-87
2023/01/30 09:09:58;;;;;;;22.17;15.63;;;10.40;97.10;;;;;;5088887;28;20692;-87
2023/01/30 09:12:24;;;;;;;19.20;14.63;;;10.10;97.90;;;;;;5105329;28;20445;-85
2023/01/30 09:14:54;;;;;;;21.40;16.35;;;9.80;98.50;;;;;;5081484;28;20212;-85
2023/01/30 09:17:20;;;;;;;22.30;17.25;;;9.40;98.80;;;;;;5090926;28;20204;-85
2023/01/30 09:19:46;;;;;;;23.90;19.17;;;9.00;99.00;;;;;;5106141;28;20197;-85
2023/01/30 09:22:12;;;;;;;21.47;14.70;;;8.40;99.50;;;;;;5092424;28;20203;-84
2023/01/30 09:24:37;;;;;;;22.60;14.67;;;8.30;99.90;;;;;;5093926;28;20492;-84
2023/01/30 09:27:03;;;;;;;20.00;14.10;;;8.40;99.90;;;;;;5107039;28;20192;-85
2023/01/30 09:29:29;;;;;;;18.37;13.17;;;8.60;99.90;;;;;;5089732;28;20176;-85
2023/01/30 09:31:55;;;;;;;20.58;14.77;;;8.60;99.70;;;;;;5084707;28;20451;-84
2023/01/30 09:34:26;;;;;;;23.15;17.02;;;8.70;99.90;;;;;;5088857;28;20208;-85
2023/01/30 09:36:53;;;;;;;17.13;11.40;;;8.80;99.80;;;;;;5103168;28;20180;-85
2023/01/30 09:39:19;;;;;;;18.00;13.55;;;8.90;99.50;;;;;;5085462;28;20187;-86
2023/01/30 09:41:59;;;;;;;21.53;14.57;;;8.80;99.80;;;;;;5079892;28;20180;-85
2023/01/30 09:44:36;;;;;;;21.33;14.95;;;8.90;99.90;;;;;;5097771;28;20416;-84
2023/01/30 09:47:03;;;;;;;15.73;13.02;;;9.10;99.90;;;;;;5096912;28;20521;-88
2023/01/30 09:49:38;;;;;;;16.80;12.05;;;9.20;99.70;;;;;;5093359;28;20179;-85
2023/01/30 09:52:31;;;;;;;22.50;14.98;;;9.10;99.80;;;;;;5089128;28;20180;-84
2023/01/30 09:55:29;;;;;;;19.33;12.90;;;9.10;99.70;;;;;;5109604;28;20639;-88
2023/01/30 09:57:57;;;;;;;77.72;45.45;;;8.90;99.70;;;;;;5074380;28;20681;-84
2023/01/30 10:00:41;;;;;;;32.55;22.45;;;8.50;99.90;;;;;;5112149;28;20189;-88
2023/01/30 10:03:20;;;;;;;32.75;23.52;;;8.30;99.90;;;;;;5090669;28;20687;-86
2023/01/30 10:05:55;;;;;;;30.55;20.45;;;8.20;99.90;;;;;;5084686;28;20274;-86
2023/01/30 10:08:59;;;;;;;56.75;35.08;;;8.50;99.90;;;;;;5091332;28;20203;-86
2023/01/30 10:11:49;;;;;;;38.45;25.58;;;8.50;99.90;;;;;;5103502;28;20195;-85
2023/01/30 10:14:52;;;;;;;18.05;14.13;;;8.40;99.90;;;;;;5093291;28;20513;-85
2023/01/30 10:17:31;;;;;;;14.20;11.40;;;8.40;99.90;;;;;;5100790;28;20211;-85
2023/01/30 10:20:05;;;;;;;20.88;15.15;;;8.50;99.90;;;;;;5072122;28;20522;-86
2023/01/30 10:22:52;;;;;;;16.08;11.15;;;8.50;99.90;;;;;;5098293;28;20200;-85
2023/01/30 10:25:31;;;;;;;17.35;13.45;;;8.40;99.90;;;;;;5099087;28;20613;-84
2023/01/30 10:28:22;;;;;;;21.85;15.20;;;8.20;99.90;;;;;;5091973;28;20191;-85
2023/01/30 10:30:51;;;;;;;17.55;12.30;;;8.30;99.90;;;;;;5092350;28;20283;-85
2023/01/30 10:33:33;;;;;;;15.95;13.55;;;8.40;99.90;;;;;;5089792;28;20578;-87
2023/01/30 10:36:11;;;;;;;16.83;13.00;;;8.30;99.90;;;;;;5081398;28;20191;-85
2023/01/30 10:38:49;;;;;;;15.02;11.82;;;8.10;99.90;;;;;;5104017;28;20187;-85
2023/01/30 10:41:38;;;;;;;16.42;11.93;;;8.10;99.90;;;;;;5100376;28;20660;-87
2023/01/30 10:44:12;;;;;;;17.98;13.15;;;8.00;99.90;;;;;;5099768;28;20279;-87
2023/01/30 10:47:05;;;;;;;15.88;12.93;;;7.60;99.90;;;;;;5086688;28;20778;-86
2023/01/30 10:49:57;;;;;;;18.60;15.68;;;7.40;99.90;;;;;;5083335;28;20214;-86
2023/01/30 10:52:50;;;;;;;21.52;15.20;;;7.00;99.90;;;;;;5100017;28;20218;-86
2023/01/30 10:55:44;;;;;;;20.95;16.23;;;6.70;99.90;;;;;;5103546;28;20201;-86
2023/01/30 10:58:16;;;;;;;18.88;15.68;;;6.60;99.90;;;;;;5089254;28;20701;-86
2023/01/30 11:00:44;;;;;;;19.40;11.80;;;6.50;99.90;;;;;;5108285;28;20199;-87
2023/01/30 11:03:26;;;;;;;34.22;19.98;;;6.40;99.90;;;;;;5084216;28;20199;-85
2023/01/30 11:06:02;;;;;;;19.05;13.18;;;6.10;99.90;;;;;;5091417;28;20513;-85
2023/01/30 11:08:33;;;;;;;20.60;15.23;;;6.10;99.90;;;;;;5097744;28;20203;-87
2023/01/30 11:10:59;;;;;;;21.52;14.23;;;5.90;99.90;;;;;;5110335;28;20192;-85
2023/01/30 11:13:32;;;;;;;20.20;13.52;;;5.80;99.90;;;;;;5103353;28;20222;-85
2023/01/30 11:16:07;;;;;;;18.27;13.05;;;5.80;99.90;;;;;;5105418;28;20211;-85
2023/01/30 11:18:42;;;;;;;16.42;12.45;;;5.70;99.90;;;;;;5103015;28;20194;-87
2023/01/30 11:21:23;;;;;;;17.33;12.57;;;5.70;99.90;;;;;;5076479;28;20208;-85
2023/01/30 11:23:50;;;;;;;16.30;11.63;;;5.80;99.90;;;;;;5089312;28;20244;-86
2023/01/30 11:26:31;;;;;;;23.08;15.13;;;5.80;99.90;;;;;;5110924;28;20733;-88
2023/01/30 11:28:57;;;;;;;46.15;28.88;;;5.80;99.90;;;;;;5092381;28;20195;-86
2023/01/30 11:31:28;;;;;;;27.13;18.90;;;5.60;99.90;;;;;;5086872;28;20180;-85
2023/01/30 11:34:04;;;;;;;18.73;12.30;;;5.50;99.90;;;;;;5088661;28;20235;-85
2023/01/30 11:36:34;;;;;;;21.85;13.52;;;5.60;99.90;;;;;;5094104;28;20270;-87
2023/01/30 11:39:03;;;;;;;20.70;12.07;;;5.60;99.90;;;;;;5108057;28;20266;-87
2023/01/30 11:41:30;;;;;;;20.70;13.02;;;5.60;99.90;;;;;;5089391;28;20187;-86
2023/01/30 11:44:04;;;;;;;19.10;12.82;;;5.60;99.90;;;;;;5086640;28;20210;-86
2023/01/30 11:46:38;;;;;;;22.23;14.32;;;5.60;99.90;;;;;;5099007;28;20210;-86
2023/01/30 11:49:17;;;;;;;17.83;12.75;;;5.80;99.90;;;;;;5081600;28;20201;-85
2023/01/30 11:51:45;;;;;;;19.30;12.98;;;5.80;99.90;;;;;;5099945;28;20184;-85
2023/01/30 11:54:17;;;;;;;19.48;12.55;;;5.90;99.90;;;;;;5084101;28;20235;-86
2023/01/30 11:56:54;;;;;;;18.52;12.77;;;6.00;99.90;;;;;;5099937;28;20241;-86
2023/01/30 11:59:48;;;;;;;16.92;12.45;;;6.10;99.90;;;;;;5080487;28;20180;-86
2023/01/30 12:02:18;;;;;;;22.00;13.73;;;6.10;99.90;;;;;;5082810;28;20730;-83
2023/01/30 12:04:45;;;;;;;17.73;12.35;;;6.10;99.90;;;;;;5084714;28;20184;-83
2023/01/30 12:07:26;;;;;;;19.85;13.30;;;6.10;99.90;;;;;;5081272;28;20208;-83
2023/01/30 12:09:53;;;;;;;20.10;12.73;;;6.30;99.90;;;;;;5097942;28;20219;-84
2023/01/30 12:12:36;;;;;;;19.30;12.55;;;6.50;99.90;;;;;;5084677;28;20260;-83
2023/01/30 12:15:28;;;;;;;19.02;12.63;;;6.50;99.90;;;;;;5105491;28;20294;-84
2023/01/30 12:18:21;;;;;;;18.67;12.88;;;6.70;99.90;;;;;;5106454;28;20256;-84
2023/01/30 12:21:26;;;;;;;71.57;41.97;;;6.70;99.90;;;;;;5094890;28;20199;-83
2023/01/30 12:24:19;;;;;;;62.65;33.22;;;6.40;99.90;;;;;;5093635;28;20246;-87
2023/01/30 12:26:59;;;;;;;90.00;45.65;;;6.00;99.90;;;;;;5105613;28;20587;-86
2023/01/30 12:29:33;;;;;;;48.42;26.38;;;5.90;99.90;;;;;;5094368;28;20648;-84
2023/01/30 12:32:16;;;;;;;64.22;33.45;;;5.70;99.90;;;;;;5093233;28;20652;-86
2023/01/30 12:34:46;;;;;;;38.65;22.27;;;5.80;99.90;;;;;;5086383;28;20782;-85
2023/01/30 12:37:37;;;;;;;112.25;57.03;;;5.60;99.90;;;;;;5092893;28;20570;-85
2023/01/30 12:40:16;;;;;;;107.40;57.60;;;5.50;99.90;;;;;;5105916;28;20656;-85
2023/01/30 12:43:04;;;;;;;43.38;26.63;;;5.60;99.90;;;;;;5102261;28;20637;-85
2023/01/30 12:46:23;;;;;;;50.33;33.50;;;5.60;99.90;;;;;;5089682;28;20210;-85
2023/01/30 12:49:19;;;;;;;39.88;24.80;;;5.70;99.90;;;;;;5008545;28;20414;-85
2023/01/30 12:52:03;;;;;;;40.35;28.20;;;5.50;99.90;;;;;;5103641;28;20650;-84
2023/01/30 12:54:39;;;;;;;63.00;40.38;;;5.50;99.90;;;;;;5099210;28;20203;-85
2023/01/30 12:57:40;;;;;;;24.73;18.85;;;5.50;99.90;;;;;;5081972;28;20289;-86
2023/01/30 13:00:29;;;;;;;19.33;14.45;;;5.40;99.90;;;;;;5087406;28;20195;-85